Time;durP1;ratioP1;P1;durP2;ratioP2;P2;SDS_P1;SDS_P2;PMS_P1;PMS_P2;Temp;Humidity;BMP_temperature;BMP_pressure;BME280_temperature;BME280_humidity;BME280_pressure;Samples;Min_cycle;Max_cycle;Signal;HPM_P1;HPM_P2
2022/04/14 00:00:48;;;;;;;;;3.00;3.00;;;;;;;;5074857;28;45303;-67
2022/04/14 00:03:13;;;;;;;;;3.50;2.50;;;;;;;;5073789;27;45596;-67
2022/04/14 00:05:38;;;;;;;;;3.33;2.67;;;;;;;;5074356;28;45328;-67
2022/04/14 00:08:04;;;;;;;;;3.33;3.33;;;;;;;;5074687;27;45356;-67
2022/04/14 00:10:29;;;;;;;;;2.00;2.00;;;;;;;;5073648;28;45421;-67
2022/04/14 00:12:54;;;;;;;;;3.00;2.67;;;;;;;;5074029;28;45365;-67
2022/04/14 00:15:19;;;;;;;;;2.67;2.67;;;;;;;;5074086;28;45311;-67
2022/04/14 00:17:45;;;;;;;;;2.00;2.00;;;;;;;;5074489;28;45322;-67
2022/04/14 00:20:10;;;;;;;;;3.33;3.33;;;;;;;;5076587;27;45655;-67
2022/04/14 00:22:36;;;;;;;;;3.33;3.33;;;;;;;;5078680;27;46111;-67
2022/04/14 00:25:01;;;;;;;;;4.00;4.00;;;;;;;;5079181;27;45393;-67
2022/04/14 00:27:26;;;;;;;;;3.67;3.67;;;;;;;;5080132;27;45622;-68
2022/04/14 00:29:52;;;;;;;;;2.50;2.50;;;;;;;;5078513;27;45494;-67
2022/04/14 00:32:17;;;;;;;;;3.25;3.25;;;;;;;;5070648;27;46579;-67
2022/04/14 00:34:42;;;;;;;;;3.00;3.00;;;;;;;;5074236;28;45661;-67
2022/04/14 00:37:10;;;;;;;;;5.50;4.00;;;;;;;;5073392;27;45291;-67
2022/04/14 00:39:35;;;;;;;;;3.00;3.00;;;;;;;;5079089;27;45469;-67
2022/04/14 00:42:01;;;;;;;;;3.33;3.00;;;;;;;;5080165;27;46225;-67
2022/04/14 00:44:26;;;;;;;;;3.75;3.75;;;;;;;;5080996;27;45424;-67
2022/04/14 00:46:51;;;;;;;;;3.25;1.50;;;;;;;;5077923;27;45484;-67
2022/04/14 00:49:17;;;;;;;;;3.00;3.00;;;;;;;;5080179;27;45312;-67
2022/04/14 00:51:42;;;;;;;;;2.25;2.25;;;;;;;;5077729;27;46435;-67
2022/04/14 00:54:07;;;;;;;;;3.00;3.00;;;;;;;;5077639;28;46002;-67
2022/04/14 00:56:32;;;;;;;;;2.00;2.00;;;;;;;;5077510;28;45482;-67
2022/04/14 00:58:58;;;;;;;;;5.00;4.00;;;;;;;;5077514;27;45407;-67
2022/04/14 01:01:23;;;;;;;;;3.50;3.50;;;;;;;;5078497;28;45997;-67
2022/04/14 01:03:50;;;;;;;;;3.00;3.00;;;;;;;;5073969;28;45512;-67
2022/04/14 01:06:16;;;;;;;;;3.00;2.75;;;;;;;;5078078;27;45499;-67
2022/04/14 01:09:16;;;;;;;;;3.00;3.00;;;;;;;;5078495;27;45449;-67
2022/04/14 01:11:27;;;;;;;;;3.00;3.00;;;;;;;;5063464;27;48511;-67
2022/04/14 01:13:53;;;;;;;;;3.00;3.00;;;;;;;;5077973;27;45303;-67
2022/04/14 01:16:18;;;;;;;;;2.25;2.25;;;;;;;;5079530;27;45565;-66
2022/04/14 01:18:43;;;;;;;;;4.00;4.00;;;;;;;;5076677;28;45484;-67
2022/04/14 01:21:08;;;;;;;;;2.00;2.00;;;;;;;;5079438;27;46430;-67
2022/04/14 01:23:42;;;;;;;;;3.50;2.75;;;;;;;;5078051;27;45532;-67
2022/04/14 01:26:07;;;;;;;;;4.00;3.25;;;;;;;;5076712;27;45525;-67
2022/04/14 01:28:33;;;;;;;;;3.50;3.50;;;;;;;;5078043;27;45547;-67
2022/04/14 01:30:58;;;;;;;;;3.00;3.00;;;;;;;;5075869;27;45523;-67
2022/04/14 01:33:23;;;;;;;;;3.00;3.00;;;;;;;;5077947;27;45718;-67
2022/04/14 01:35:48;;;;;;;;;4.00;4.00;;;;;;;;5077002;27;45366;-67
2022/04/14 01:38:13;;;;;;;;;5.50;4.25;;;;;;;;5077133;27;45481;-67
2022/04/14 01:40:39;;;;;;;;;3.00;3.00;;;;;;;;5062000;27;46617;-67
2022/04/14 01:43:04;;;;;;;;;3.00;3.00;;;;;;;;5075166;28;45441;-67
2022/04/14 01:45:29;;;;;;;;;3.00;3.00;;;;;;;;5074825;28;45437;-67
2022/04/14 01:47:54;;;;;;;;;3.67;3.67;;;;;;;;5077459;27;45699;-67
2022/04/14 01:50:20;;;;;;;;;4.00;3.00;;;;;;;;5077607;27;45680;-67
2022/04/14 01:52:46;;;;;;;;;3.25;3.25;;;;;;;;5077815;27;46056;-67
2022/04/14 01:55:11;;;;;;;;;4.00;3.75;;;;;;;;5079135;27;45386;-67
2022/04/14 01:57:36;;;;;;;;;2.33;2.33;;;;;;;;5075869;28;45386;-67
2022/04/14 02:00:04;;;;;;;;;3.25;3.25;;;;;;;;5077395;27;45538;-67
2022/04/14 02:02:29;;;;;;;;;3.25;3.00;;;;;;;;5075872;28;45935;-67
2022/04/14 02:04:54;;;;;;;;;2.75;2.75;;;;;;;;5075182;28;45315;-67
2022/04/14 02:07:20;;;;;;;;;2.00;2.00;;;;;;;;5078422;27;45362;-67
2022/04/14 02:09:45;;;;;;;;;4.75;2.75;;;;;;;;5075733;28;46387;-67
2022/04/14 02:12:11;;;;;;;;;4.25;4.25;;;;;;;;5075956;28;45442;-67
2022/04/14 02:14:38;;;;;;;;;3.25;3.25;;;;;;;;5076569;28;45303;-67
2022/04/14 02:17:03;;;;;;;;;2.00;2.00;;;;;;;;5075654;27;45423;-67
2022/04/14 02:19:28;;;;;;;;;3.67;3.00;;;;;;;;5076269;27;45703;-67
2022/04/14 02:21:54;;;;;;;;;2.67;2.67;;;;;;;;5076249;28;45385;-67
2022/04/14 02:24:20;;;;;;;;;4.00;4.00;;;;;;;;5075649;28;45330;-67
2022/04/14 02:26:45;;;;;;;;;4.00;4.00;;;;;;;;5076583;27;45471;-67
2022/04/14 02:29:10;;;;;;;;;3.00;3.00;;;;;;;;5075896;27;46220;-68
2022/04/14 02:31:35;;;;;;;;;3.00;3.00;;;;;;;;5077154;27;45364;-67
2022/04/14 02:34:00;;;;;;;;;4.50;4.00;;;;;;;;5076767;28;45499;-67
2022/04/14 02:36:26;;;;;;;;;3.50;3.50;;;;;;;;5075963;27;45437;-67
2022/04/14 02:38:51;;;;;;;;;3.00;3.00;;;;;;;;5077927;27;46227;-67
2022/04/14 02:41:16;;;;;;;;;4.00;4.00;;;;;;;;5077744;27;45457;-67
2022/04/14 02:43:41;;;;;;;;;3.00;3.00;;;;;;;;5076704;27;45294;-67
2022/04/14 02:46:07;;;;;;;;;4.00;4.00;;;;;;;;5075552;28;45447;-67
2022/04/14 02:48:32;;;;;;;;;2.50;2.00;;;;;;;;5075704;27;45549;-67
2022/04/14 02:50:57;;;;;;;;;3.00;3.00;;;;;;;;5078234;27;45349;-67
2022/04/14 02:53:22;;;;;;;;;3.67;3.67;;;;;;;;5075388;28;45392;-67
2022/04/14 02:55:47;;;;;;;;;4.00;4.00;;;;;;;;5076184;28;45229;-67
2022/04/14 02:58:13;;;;;;;;;3.00;3.00;;;;;;;;5075739;27;46401;-67
2022/04/14 03:00:38;;;;;;;;;2.25;2.25;;;;;;;;5074151;28;45794;-67
2022/04/14 03:03:03;;;;;;;;;2.75;2.75;;;;;;;;5075267;28;45133;-67
2022/04/14 03:05:29;;;;;;;;;3.25;3.25;;;;;;;;5075981;27;45458;-67
2022/04/14 03:07:54;;;;;;;;;3.00;3.00;;;;;;;;5075505;27;45313;-67
2022/04/14 03:10:19;;;;;;;;;3.00;3.00;;;;;;;;5073523;27;45351;-67
2022/04/14 03:12:46;;;;;;;;;3.75;3.75;;;;;;;;5075532;28;45327;-67
2022/04/14 03:15:12;;;;;;;;;4.00;4.00;;;;;;;;5075752;28;45390;-67
2022/04/14 03:17:37;;;;;;;;;3.50;2.00;;;;;;;;5074401;27;46098;-67
2022/04/14 03:20:03;;;;;;;;;4.50;4.50;;;;;;;;5075387;27;45467;-67
2022/04/14 03:22:32;;;;;;;;;3.00;3.00;;;;;;;;5075457;27;45723;-67
2022/04/14 03:24:57;;;;;;;;;4.25;4.00;;;;;;;;5075458;27;45591;-67
2022/04/14 03:27:22;;;;;;;;;5.00;3.25;;;;;;;;5076315;27;46308;-67
2022/04/14 03:29:48;;;;;;;;;3.00;3.00;;;;;;;;5075202;28;45357;-67
2022/04/14 03:32:13;;;;;;;;;4.50;3.50;;;;;;;;5073982;28;45732;-67
2022/04/14 03:34:38;;;;;;;;;3.00;3.00;;;;;;;;5076412;27;45332;-67
2022/04/14 03:37:04;;;;;;;;;3.00;3.00;;;;;;;;5074691;28;45377;-67
2022/04/14 03:39:29;;;;;;;;;2.25;2.25;;;;;;;;5076308;27;45244;-66
2022/04/14 03:41:54;;;;;;;;;3.25;2.25;;;;;;;;5076143;27;45433;-67
2022/04/14 03:44:19;;;;;;;;;2.50;2.50;;;;;;;;5075967;27;45300;-67
2022/04/14 03:46:44;;;;;;;;;2.50;2.50;;;;;;;;5076061;27;46575;-67
2022/04/14 03:49:10;;;;;;;;;3.00;3.00;;;;;;;;5074736;28;45315;-67
2022/04/14 03:51:36;;;;;;;;;3.00;3.00;;;;;;;;5075126;27;45445;-67
2022/04/14 03:54:01;;;;;;;;;2.75;2.50;;;;;;;;5075613;27;45442;-67
2022/04/14 03:56:26;;;;;;;;;3.00;3.00;;;;;;;;5075482;27;46487;-67
2022/04/14 03:58:51;;;;;;;;;3.25;3.00;;;;;;;;5074259;27;45343;-67
2022/04/14 04:01:16;;;;;;;;;3.00;3.00;;;;;;;;5075196;28;45443;-67
2022/04/14 04:03:42;;;;;;;;;3.25;3.25;;;;;;;;5074726;27;45207;-67
2022/04/14 04:06:07;;;;;;;;;4.75;3.50;;;;;;;;5075861;27;45476;-67
2022/04/14 04:08:32;;;;;;;;;2.75;2.75;;;;;;;;5076120;27;45347;-67
2022/04/14 04:10:58;;;;;;;;;2.00;2.00;;;;;;;;5072919;27;45215;-67
2022/04/14 04:13:23;;;;;;;;;8.00;4.50;;;;;;;;5075564;28;45436;-67
2022/04/14 04:15:50;;;;;;;;;2.00;2.00;;;;;;;;5077083;27;45614;-67
2022/04/14 04:18:15;;;;;;;;;3.50;3.50;;;;;;;;5075695;27;45366;-67
2022/04/14 04:20:40;;;;;;;;;3.00;3.00;;;;;;;;5076103;27;45518;-67
2022/04/14 04:23:05;;;;;;;;;2.50;2.00;;;;;;;;5074061;27;45370;-67
2022/04/14 04:25:31;;;;;;;;;3.00;3.00;;;;;;;;5075409;27;45461;-67
2022/04/14 04:27:56;;;;;;;;;3.75;2.75;;;;;;;;5075664;27;45491;-67
2022/04/14 04:30:21;;;;;;;;;3.00;3.00;;;;;;;;5075257;27;46501;-67
2022/04/14 04:32:46;;;;;;;;;3.00;2.50;;;;;;;;5072749;28;45498;-67
2022/04/14 04:35:12;;;;;;;;;3.75;3.00;;;;;;;;5073824;27;46070;-67
2022/04/14 04:37:38;;;;;;;;;3.75;3.75;;;;;;;;5074830;27;45336;-67
2022/04/14 04:40:04;;;;;;;;;3.50;3.00;;;;;;;;5073678;28;45454;-67
2022/04/14 04:42:29;;;;;;;;;3.50;3.50;;;;;;;;5074208;28;45335;-67
2022/04/14 04:44:54;;;;;;;;;4.75;3.75;;;;;;;;5073742;28;46525;-66
2022/04/14 04:47:22;;;;;;;;;4.00;4.00;;;;;;;;5073900;28;45711;-67
2022/04/14 04:49:47;;;;;;;;;2.50;2.50;;;;;;;;5075168;27;45374;-67
2022/04/14 04:52:13;;;;;;;;;3.00;3.00;;;;;;;;5073276;28;45276;-67
2022/04/14 04:54:38;;;;;;;;;3.00;3.00;;;;;;;;5073534;28;45399;-67
2022/04/14 04:57:04;;;;;;;;;2.75;2.75;;;;;;;;5071445;28;45921;-67
2022/04/14 04:59:29;;;;;;;;;5.50;3.00;;;;;;;;5059781;28;45472;-67
2022/04/14 05:01:54;;;;;;;;;4.25;4.25;;;;;;;;5074939;27;45446;-67
2022/04/14 05:04:20;;;;;;;;;2.00;2.00;;;;;;;;5076536;27;46482;-67
2022/04/14 05:06:45;;;;;;;;;2.00;2.00;;;;;;;;5075283;28;45400;-67
2022/04/14 05:09:10;;;;;;;;;3.00;3.00;;;;;;;;5077686;28;45596;-67
2022/04/14 05:11:35;;;;;;;;;5.00;4.00;;;;;;;;5077184;28;45394;-67
2022/04/14 05:14:01;;;;;;;;;2.25;2.25;;;;;;;;5077514;28;46307;-67
2022/04/14 05:16:26;;;;;;;;;2.67;2.67;;;;;;;;5077782;28;45669;-67
2022/04/14 05:18:52;;;;;;;;;3.00;3.00;;;;;;;;5077835;28;45268;-67
2022/04/14 05:21:17;;;;;;;;;5.50;4.00;;;;;;;;5077274;27;45343;-67
2022/04/14 05:23:42;;;;;;;;;3.75;3.75;;;;;;;;5078175;27;46639;-66
2022/04/14 05:26:07;;;;;;;;;2.00;2.00;;;;;;;;5077537;27;45394;-67
2022/04/14 05:28:32;;;;;;;;;3.25;2.75;;;;;;;;5076525;27;45431;-67
2022/04/14 05:30:58;;;;;;;;;2.00;2.00;;;;;;;;5076087;28;45400;-70
2022/04/14 05:33:23;;;;;;;;;3.75;3.75;;;;;;;;5077327;28;46120;-67
2022/04/14 05:35:48;;;;;;;;;4.00;4.00;;;;;;;;5076781;28;45314;-67
2022/04/14 05:38:14;;;;;;;;;2.75;2.75;;;;;;;;5078418;27;45413;-68
2022/04/14 05:40:41;;;;;;;;;3.50;3.50;;;;;;;;5078927;27;45396;-67
2022/04/14 05:43:16;;;;;;;;;2.75;2.75;;;;;;;;5078515;27;46537;-68
2022/04/14 05:45:44;;;;;;;;;3.67;3.67;;;;;;;;5077697;27;46093;-71
2022/04/14 05:48:10;;;;;;;;;5.75;3.75;;;;;;;;5077080;28;45390;-70
2022/04/14 05:50:35;;;;;;;;;4.00;3.50;;;;;;;;5076899;28;45354;-69
2022/04/14 05:53:00;;;;;;;;;4.00;4.00;;;;;;;;5076448;27;45710;-69
2022/04/14 05:55:25;;;;;;;;;3.33;3.00;;;;;;;;5071991;27;45485;-69
2022/04/14 05:57:50;;;;;;;;;2.75;2.75;;;;;;;;5070483;28;45508;-68
2022/04/14 06:00:16;;;;;;;;;4.00;3.75;;;;;;;;5074041;27;45537;-69
2022/04/14 06:02:41;;;;;;;;;3.00;3.00;;;;;;;;5069621;27;45538;-70
2022/04/14 06:05:06;;;;;;;;;3.00;3.00;;;;;;;;5070772;27;45651;-69
2022/04/14 06:07:31;;;;;;;;;2.25;2.25;;;;;;;;5075844;27;45432;-69
2022/04/14 06:09:57;;;;;;;;;4.25;4.25;;;;;;;;5075277;28;45384;-69
2022/04/14 06:12:22;;;;;;;;;3.75;3.25;;;;;;;;5073470;27;46273;-70
2022/04/14 06:14:47;;;;;;;;;3.25;3.25;;;;;;;;5070081;27;45541;-69
2022/04/14 06:17:13;;;;;;;;;4.00;4.00;;;;;;;;5066611;28;45466;-69
2022/04/14 06:19:38;;;;;;;;;4.00;3.00;;;;;;;;5072392;27;45513;-71
2022/04/14 06:22:04;;;;;;;;;4.00;3.00;;;;;;;;5074313;28;45407;-70
2022/04/14 06:24:29;;;;;;;;;2.00;2.00;;;;;;;;5076099;27;45437;-73
2022/04/14 06:26:54;;;;;;;;;8.00;3.00;;;;;;;;5076271;27;45460;-73
2022/04/14 06:29:19;;;;;;;;;3.25;3.25;;;;;;;;5075518;28;45407;-73
2022/04/14 06:31:45;;;;;;;;;4.00;4.00;;;;;;;;5077124;27;47068;-73
2022/04/14 06:34:10;;;;;;;;;4.50;3.00;;;;;;;;5076394;27;45502;-73
2022/04/14 06:36:35;;;;;;;;;4.00;4.00;;;;;;;;5069210;28;45472;-73
2022/04/14 06:39:00;;;;;;;;;4.00;4.00;;;;;;;;5065465;28;45303;-72
2022/04/14 06:41:26;;;;;;;;;4.75;3.50;;;;;;;;5076302;28;46521;-73
2022/04/14 06:43:51;;;;;;;;;7.00;5.00;;;;;;;;5076208;27;45322;-72
2022/04/14 06:46:16;;;;;;;;;6.00;4.50;;;;;;;;5076822;27;45336;-73
2022/04/14 06:48:42;;;;;;;;;6.50;4.00;;;;;;;;5076128;28;45609;-73
2022/04/14 06:51:07;;;;;;;;;4.25;4.25;;;;;;;;5075080;28;46186;-73
2022/04/14 06:53:33;;;;;;;;;4.00;3.75;;;;;;;;5065762;27;45236;-73
2022/04/14 06:55:58;;;;;;;;;3.25;3.25;;;;;;;;5076638;27;45383;-73
2022/04/14 06:58:23;;;;;;;;;5.00;3.00;;;;;;;;5073615;27;45345;-73
2022/04/14 07:00:48;;;;;;;;;2.50;2.50;;;;;;;;5073686;28;45322;-73
2022/04/14 07:03:13;;;;;;;;;4.00;4.00;;;;;;;;5077150;27;45435;-73
2022/04/14 07:05:39;;;;;;;;;5.00;5.00;;;;;;;;5075999;28;45546;-73
2022/04/14 07:08:04;;;;;;;;;4.00;4.00;;;;;;;;5068952;28;45363;-73
2022/04/14 07:10:29;;;;;;;;;3.00;3.00;;;;;;;;5076752;28;45455;-73
2022/04/14 07:12:55;;;;;;;;;4.50;3.75;;;;;;;;5075311;28;45449;-73
2022/04/14 07:15:21;;;;;;;;;4.75;4.00;;;;;;;;5071491;28;45376;-73
2022/04/14 07:17:46;;;;;;;;;4.00;4.00;;;;;;;;5062041;28;45395;-73
2022/04/14 07:20:11;;;;;;;;;6.00;4.25;;;;;;;;5075117;27;45541;-73
2022/04/14 07:22:43;;;;;;;;;3.50;3.50;;;;;;;;5076382;28;45332;-73
2022/04/14 07:25:09;;;;;;;;;5.25;4.00;;;;;;;;5074435;27;45389;-73
2022/04/14 07:27:34;;;;;;;;;4.00;4.00;;;;;;;;5074007;28;45514;-73
2022/04/14 07:29:59;;;;;;;;;3.50;3.50;;;;;;;;5074180;28;45472;-73
2022/04/14 07:32:33;;;;;;;;;5.75;4.00;;;;;;;;5065831;28;45537;-73
2022/04/14 07:34:58;;;;;;;;;4.00;4.00;;;;;;;;5075780;27;45223;-73
2022/04/14 07:37:23;;;;;;;;;6.00;4.00;;;;;;;;5077042;27;45139;-73
2022/04/14 07:39:48;;;;;;;;;3.25;1.75;;;;;;;;5074342;28;47346;-73
2022/04/14 07:42:13;;;;;;;;;6.50;4.00;;;;;;;;5074934;28;45528;-73
2022/04/14 07:44:39;;;;;;;;;3.75;3.75;;;;;;;;5075017;28;45323;-73
2022/04/14 07:47:04;;;;;;;;;4.00;4.00;;;;;;;;5075301;27;48776;-73
2022/04/14 07:49:29;;;;;;;;;4.75;3.75;;;;;;;;5074057;27;45476;-73
2022/04/14 07:51:55;;;;;;;;;3.33;3.33;;;;;;;;5073965;28;45376;-73
2022/04/14 07:54:21;;;;;;;;;3.00;3.00;;;;;;;;5074342;28;45363;-73
2022/04/14 07:56:47;;;;;;;;;4.25;4.25;;;;;;;;5075783;27;45470;-73
2022/04/14 07:59:12;;;;;;;;;6.00;4.75;;;;;;;;5073541;28;46934;-72
2022/04/14 08:01:37;;;;;;;;;4.00;4.00;;;;;;;;5075679;27;45381;-73
2022/04/14 08:04:03;;;;;;;;;5.50;5.50;;;;;;;;5075310;27;45340;-73
2022/04/14 08:06:29;;;;;;;;;3.50;3.50;;;;;;;;5073959;28;45460;-73
2022/04/14 08:08:54;;;;;;;;;3.25;3.25;;;;;;;;5074494;28;51126;-73
2022/04/14 08:11:19;;;;;;;;;4.00;3.00;;;;;;;;5074624;27;45279;-73
2022/04/14 08:13:44;;;;;;;;;4.00;3.00;;;;;;;;5076178;27;45542;-73
2022/04/14 08:16:10;;;;;;;;;5.00;3.25;;;;;;;;5075871;27;45547;-73
2022/04/14 08:18:39;;;;;;;;;5.25;3.75;;;;;;;;5074453;27;45320;-73
2022/04/14 08:21:04;;;;;;;;;3.00;3.00;;;;;;;;5074649;28;45536;-73
2022/04/14 08:23:30;;;;;;;;;5.00;4.00;;;;;;;;5074493;27;45460;-73
2022/04/14 08:25:55;;;;;;;;;3.25;3.25;;;;;;;;5074946;27;45481;-73
2022/04/14 08:28:21;;;;;;;;;4.00;4.00;;;;;;;;5075837;27;46504;-73
2022/04/14 08:30:46;;;;;;;;;3.75;3.75;;;;;;;;5071111;27;45451;-73
2022/04/14 08:33:12;;;;;;;;;4.50;4.50;;;;;;;;5074311;28;45564;-73
2022/04/14 08:35:37;;;;;;;;;5.00;4.25;;;;;;;;5063456;27;45526;-73
2022/04/14 08:38:06;;;;;;;;;2.50;2.50;;;;;;;;5075153;27;46665;-73
2022/04/14 08:40:37;;;;;;;;;4.00;3.25;;;;;;;;5073194;28;45221;-73
2022/04/14 08:43:03;;;;;;;;;3.25;2.50;;;;;;;;5077192;28;45393;-73
2022/04/14 08:45:50;;;;;;;;;4.25;4.25;;;;;;;;5081377;27;45382;-73
2022/04/14 08:48:15;;;;;;;;;3.75;3.00;;;;;;;;5078433;27;47912;-73
2022/04/14 08:50:44;;;;;;;;;4.00;4.00;;;;;;;;5076815;28;45604;-73
2022/04/14 08:53:10;;;;;;;;;4.00;4.00;;;;;;;;5072496;28;45456;-74
2022/04/14 08:55:38;;;;;;;;;3.75;3.50;;;;;;;;5072451;27;45379;-73
2022/04/14 08:58:04;;;;;;;;;3.00;3.00;;;;;;;;5075879;28;46635;-73
2022/04/14 09:00:30;;;;;;;;;4.33;4.33;;;;;;;;5078179;27;45369;-73
2022/04/14 09:02:57;;;;;;;;;6.00;5.00;;;;;;;;5079050;27;45673;-73
2022/04/14 09:05:23;;;;;;;;;5.00;5.00;;;;;;;;5077446;28;45407;-73
2022/04/14 09:07:52;;;;;;;;;5.25;4.00;;;;;;;;5078838;27;46506;-73
2022/04/14 09:10:20;;;;;;;;;4.25;3.50;;;;;;;;5078037;28;45310;-73
2022/04/14 09:12:47;;;;;;;;;4.00;4.00;;;;;;;;5079534;27;45465;-73
2022/04/14 09:15:12;;;;;;;;;3.25;3.25;;;;;;;;5077723;28;45322;-73
2022/04/14 09:17:37;;;;;;;;;4.00;4.00;;;;;;;;5077703;28;46478;-73
2022/04/14 09:20:28;;;;;;;;;4.75;4.75;;;;;;;;5077608;28;45407;-73
2022/04/14 09:23:09;;;;;;;;;5.00;3.25;;;;;;;;5070056;28;45621;-74
2022/04/14 09:25:34;;;;;;;;;3.25;3.25;;;;;;;;5078480;27;45472;-73
2022/04/14 09:28:07;;;;;;;;;5.00;3.00;;;;;;;;5076739;28;45487;-73
2022/04/14 09:30:32;;;;;;;;;4.75;3.25;;;;;;;;5077233;27;45356;-73
2022/04/14 09:32:58;;;;;;;;;4.00;4.00;;;;;;;;5076107;28;45609;-73
2022/04/14 09:35:23;;;;;;;;;4.75;4.00;;;;;;;;5077858;27;45363;-73
2022/04/14 09:38:06;;;;;;;;;0.75;0.50;;;;;;;;5078161;27;46570;-73
2022/04/14 09:40:35;;;;;;;;;4.25;3.25;;;;;;;;5076301;28;45490;-73
2022/04/14 09:43:00;;;;;;;;;6.75;3.50;;;;;;;;5078023;27;45394;-73
2022/04/14 09:45:26;;;;;;;;;3.25;3.25;;;;;;;;5078841;27;45395;-73
2022/04/14 09:48:00;;;;;;;;;5.50;4.00;;;;;;;;5078497;27;46392;-73
2022/04/14 09:50:39;;;;;;;;;3.00;3.00;;;;;;;;5061516;28;45484;-73
2022/04/14 09:53:05;;;;;;;;;5.00;5.00;;;;;;;;5069501;28;45284;-73
2022/04/14 09:55:31;;;;;;;;;3.00;3.00;;;;;;;;5075965;28;45390;-73
2022/04/14 09:58:05;;;;;;;;;3.50;3.50;;;;;;;;5076553;28;45521;-73
2022/04/14 10:00:36;;;;;;;;;3.50;3.00;;;;;;;;5077808;27;45446;-72
2022/04/14 10:03:28;;;;;;;;;4.50;3.75;;;;;;;;5076572;28;45422;-73
2022/04/14 10:06:04;;;;;;;;;3.00;3.00;;;;;;;;5071781;27;45486;-73
2022/04/14 10:08:42;;;;;;;;;5.00;3.00;;;;;;;;5067237;27;45304;-73
2022/04/14 10:11:08;;;;;;;;;3.75;3.75;;;;;;;;5075517;28;45518;-73
2022/04/14 10:13:38;;;;;;;;;2.00;2.00;;;;;;;;5073384;27;45438;-73
2022/04/14 10:16:03;;;;;;;;;3.00;3.00;;;;;;;;5076334;27;45430;-73
2022/04/14 10:18:30;;;;;;;;;2.75;2.75;;;;;;;;5072628;28;47828;-73
2022/04/14 10:20:56;;;;;;;;;0.25;0.25;;;;;;;;5065411;28;45459;-73
2022/04/14 10:23:22;;;;;;;;;4.00;2.25;;;;;;;;5078258;27;45414;-74
2022/04/14 10:25:50;;;;;;;;;2.00;2.00;;;;;;;;5077357;27;45427;-73
2022/04/14 10:28:16;;;;;;;;;3.25;3.25;;;;;;;;5076260;28;46513;-73
2022/04/14 10:30:45;;;;;;;;;4.00;3.00;;;;;;;;5075247;28;45465;-73
2022/04/14 10:33:12;;;;;;;;;4.25;4.25;;;;;;;;5076280;27;45621;-73
2022/04/14 10:35:37;;;;;;;;;2.75;2.75;;;;;;;;5075521;28;45476;-73
2022/04/14 10:38:05;;;;;;;;;3.00;3.00;;;;;;;;5076363;28;46628;-73
2022/04/14 10:40:31;;;;;;;;;2.00;2.00;;;;;;;;5075055;28;45327;-73
2022/04/14 10:42:58;;;;;;;;;3.75;3.75;;;;;;;;5075994;28;45576;-73
2022/04/14 10:45:24;;;;;;;;;2.75;2.75;;;;;;;;5077879;27;45240;-73
2022/04/14 10:47:56;;;;;;;;;4.25;3.00;;;;;;;;5079790;27;45330;-73
2022/04/14 10:50:31;;;;;;;;;4.00;3.00;;;;;;;;5060734;28;45620;-73
2022/04/14 10:53:26;;;;;;;;;4.50;3.00;;;;;;;;5076593;28;45493;-73
2022/04/14 10:55:51;;;;;;;;;4.00;3.75;;;;;;;;5068224;27;45319;-73
2022/04/14 10:58:28;;;;;;;;;3.50;3.00;;;;;;;;5076205;28;45349;-73
2022/04/14 11:00:56;;;;;;;;;2.75;2.75;;;;;;;;5075533;28;45420;-73
2022/04/14 11:03:40;;;;;;;;;3.75;3.00;;;;;;;;5078923;27;45362;-73
2022/04/14 11:06:05;;;;;;;;;3.25;3.00;;;;;;;;5075351;28;45423;-73
2022/04/14 11:08:32;;;;;;;;;3.00;3.00;;;;;;;;5075464;28;45412;-73
2022/04/14 11:11:00;;;;;;;;;1.50;1.50;;;;;;;;5076054;27;45361;-73
2022/04/14 11:13:45;;;;;;;;;4.00;3.00;;;;;;;;5078484;27;45340;-73
2022/04/14 11:16:29;;;;;;;;;3.75;2.75;;;;;;;;5075033;28;45446;-73
2022/04/14 11:19:13;;;;;;;;;3.00;3.00;;;;;;;;5074521;28;45478;-73
2022/04/14 11:21:58;;;;;;;;;4.50;4.25;;;;;;;;5075564;27;45492;-73
2022/04/14 11:24:52;;;;;;;;;1.00;1.00;;;;;;;;5075532;28;45382;-73
2022/04/14 11:27:28;;;;;;;;;1.00;1.00;;;;;;;;5070253;28;45339;-73
2022/04/14 11:29:57;;;;;;;;;2.00;2.00;;;;;;;;5075557;28;46524;-73
2022/04/14 11:32:36;;;;;;;;;4.00;4.00;;;;;;;;5074875;28;45408;-73
2022/04/14 11:35:09;;;;;;;;;2.00;2.00;;;;;;;;5075776;27;45380;-73
2022/04/14 11:37:39;;;;;;;;;2.00;2.00;;;;;;;;5074859;28;45454;-73
2022/04/14 11:40:23;;;;;;;;;3.25;2.00;;;;;;;;5071206;27;45501;-73
2022/04/14 11:42:50;;;;;;;;;1.25;1.25;;;;;;;;5070710;28;45409;-73
2022/04/14 11:45:22;;;;;;;;;1.75;1.75;;;;;;;;5071289;28;45458;-73
2022/04/14 11:47:48;;;;;;;;;2.25;2.25;;;;;;;;5074755;27;45318;-73
2022/04/14 11:50:13;;;;;;;;;2.00;2.00;;;;;;;;5075457;28;45447;-73
2022/04/14 11:52:41;;;;;;;;;1.75;1.75;;;;;;;;5074079;27;45495;-73
2022/04/14 11:55:06;;;;;;;;;3.00;2.00;;;;;;;;5069807;28;45574;-73
2022/04/14 11:57:33;;;;;;;;;4.00;2.25;;;;;;;;5070969;28;45280;-73
2022/04/14 12:00:11;;;;;;;;;5.25;0.25;;;;;;;;5074406;27;47445;-73
2022/04/14 12:02:36;;;;;;;;;2.00;1.33;;;;;;;;5074441;27;45518;-73
2022/04/14 12:05:01;;;;;;;;;2.00;2.00;;;;;;;;5074531;27;45353;-73
2022/04/14 12:07:30;;;;;;;;;1.75;1.75;;;;;;;;5075502;28;45357;-73
2022/04/14 12:10:02;;;;;;;;;1.00;1.00;;;;;;;;5074707;28;45493;-73
2022/04/14 12:12:30;;;;;;;;;3.33;1.67;;;;;;;;5074645;28;45447;-73
2022/04/14 12:14:55;;;;;;;;;2.00;2.00;;;;;;;;5074578;27;45491;-73
2022/04/14 12:17:22;;;;;;;;;2.00;2.00;;;;;;;;5074168;27;45581;-73
2022/04/14 12:20:07;;;;;;;;;2.50;2.00;;;;;;;;5070789;28;45567;-73
2022/04/14 12:22:34;;;;;;;;;4.00;2.50;;;;;;;;5072277;28;45467;-73
2022/04/14 12:25:00;;;;;;;;;2.25;2.25;;;;;;;;5072386;28;45475;-73
2022/04/14 12:27:34;;;;;;;;;2.00;2.00;;;;;;;;5076953;27;45733;-72
2022/04/14 12:30:15;;;;;;;;;2.00;2.00;;;;;;;;5077382;27;46384;-73
2022/04/14 12:32:43;;;;;;;;;2.50;2.50;;;;;;;;5073875;28;45379;-73
2022/04/14 12:35:10;;;;;;;;;2.75;1.00;;;;;;;;5073356;27;45552;-73
2022/04/14 12:37:42;;;;;;;;;1.50;1.50;;;;;;;;5075846;27;45458;-73
2022/04/14 12:40:11;;;;;;;;;1.00;1.00;;;;;;;;5074842;28;47484;-73
2022/04/14 12:42:39;;;;;;;;;3.75;2.00;;;;;;;;5073673;27;45468;-73
2022/04/14 12:45:05;;;;;;;;;2.67;2.00;;;;;;;;5076597;27;45290;-73
2022/04/14 12:47:31;;;;;;;;;3.00;3.00;;;;;;;;5074146;28;45395;-73
2022/04/14 12:49:57;;;;;;;;;1.00;1.00;;;;;;;;5074598;27;46455;-74
2022/04/14 12:52:23;;;;;;;;;2.00;2.00;;;;;;;;5072985;28;45276;-74
2022/04/14 12:54:49;;;;;;;;;2.67;2.67;;;;;;;;5074565;28;45315;-74
2022/04/14 12:57:18;;;;;;;;;2.00;2.00;;;;;;;;5072345;28;45434;-74
2022/04/14 12:59:58;;;;;;;;;2.00;2.00;;;;;;;;5073780;27;45667;-74
2022/04/14 13:02:24;;;;;;;;;3.75;2.25;;;;;;;;5058118;28;45301;-74
2022/04/14 13:04:49;;;;;;;;;1.75;1.75;;;;;;;;5075666;27;45402;-74
2022/04/14 13:07:16;;;;;;;;;2.00;2.00;;;;;;;;5073541;28;45453;-74
2022/04/14 13:09:57;;;;;;;;;4.00;2.00;;;;;;;;5073402;28;46917;-74
2022/04/14 13:12:37;;;;;;;;;4.25;2.00;;;;;;;;5071769;27;46022;-74
2022/04/14 13:15:02;;;;;;;;;1.00;1.00;;;;;;;;5076613;27;45361;-73
2022/04/14 13:17:27;;;;;;;;;2.00;2.00;;;;;;;;5073987;28;45284;-73
2022/04/14 13:19:54;;;;;;;;;2.00;2.00;;;;;;;;5058344;27;45298;-73
2022/04/14 13:22:20;;;;;;;;;2.00;2.00;;;;;;;;5073804;28;45245;-73
2022/04/14 13:24:46;;;;;;;;;1.00;1.00;;;;;;;;5077142;27;45382;-74
2022/04/14 13:27:11;;;;;;;;;1.00;1.00;;;;;;;;5071817;28;45982;-73
2022/04/14 13:29:36;;;;;;;;;2.00;2.00;;;;;;;;5077919;27;45523;-74
2022/04/14 13:32:02;;;;;;;;;1.00;1.00;;;;;;;;5077103;27;45575;-74
2022/04/14 13:34:27;;;;;;;;;3.00;1.67;;;;;;;;5076652;28;45338;-74
2022/04/14 13:36:58;;;;;;;;;2.33;1.00;;;;;;;;5076480;28;45533;-74
2022/04/14 13:39:23;;;;;;;;;1.33;1.33;;;;;;;;5077058;28;45645;-74
2022/04/14 13:41:48;;;;;;;;;3.00;2.00;;;;;;;;5079148;27;45547;-73
2022/04/14 13:44:13;;;;;;;;;1.67;1.67;;;;;;;;5077214;27;45456;-73
2022/04/14 13:46:39;;;;;;;;;2.67;2.00;;;;;;;;5078263;28;45373;-74
2022/04/14 13:49:04;;;;;;;;;2.00;2.00;;;;;;;;5076762;27;46026;-71
2022/04/14 13:51:29;;;;;;;;;1.00;1.00;;;;;;;;5076986;28;45414;-71
2022/04/14 13:53:54;;;;;;;;;1.00;1.00;;;;;;;;5076608;28;45286;-71
2022/04/14 13:56:20;;;;;;;;;1.00;1.00;;;;;;;;5068674;27;45233;-71
2022/04/14 13:58:45;;;;;;;;;1.75;1.50;;;;;;;;5077828;28;46148;-72
2022/04/14 14:01:10;;;;;;;;;1.67;1.67;;;;;;;;5079839;27;45507;-71
2022/04/14 14:03:36;;;;;;;;;1.00;1.00;;;;;;;;5077813;27;45213;-71
2022/04/14 14:06:01;;;;;;;;;1.67;1.00;;;;;;;;5076867;28;45444;-72
2022/04/14 14:08:27;;;;;;;;;1.00;1.00;;;;;;;;5076320;28;47482;-74
2022/04/14 14:10:52;;;;;;;;;2.00;2.00;;;;;;;;5077869;27;45838;-72
2022/04/14 14:13:18;;;;;;;;;3.00;1.33;;;;;;;;5075785;28;45509;-72
2022/04/14 14:15:44;;;;;;;;;1.25;1.25;;;;;;;;5075342;28;45278;-72
2022/04/14 14:18:09;;;;;;;;;1.33;1.33;;;;;;;;5076681;27;46661;-72
2022/04/14 14:20:34;;;;;;;;;2.00;2.00;;;;;;;;5076033;28;45497;-72
2022/04/14 14:23:00;;;;;;;;;2.00;2.00;;;;;;;;5076427;28;45474;-71
2022/04/14 14:25:25;;;;;;;;;1.50;1.50;;;;;;;;5076747;28;45330;-72
2022/04/14 14:27:50;;;;;;;;;1.00;1.00;;;;;;;;5076065;27;45344;-72
2022/04/14 14:30:16;;;;;;;;;1.00;1.00;;;;;;;;5076488;27;45373;-73
2022/04/14 14:32:41;;;;;;;;;1.25;1.25;;;;;;;;5077752;27;45508;-73
2022/04/14 14:35:13;;;;;;;;;1.00;1.00;;;;;;;;5077984;27;48657;-73
2022/04/14 14:37:38;;;;;;;;;2.00;2.00;;;;;;;;5075863;28;46168;-73
2022/04/14 14:40:03;;;;;;;;;2.00;1.00;;;;;;;;5078083;27;45331;-72
2022/04/14 14:42:30;;;;;;;;;1.33;1.33;;;;;;;;5076867;27;45341;-72